^^

..:: Metar reader and decoder ::..




OSSERVAZIONI E PREVISIONI METEOROLOGICHE DAGLI AEROPORTI ITALIANI
(messaggi METAR)

 


LIPX - Villafranca(Cv/M, Italy
Distanza dalla stazione: NNE 28km
Dati ricevuti: Thu, 06-May-2021 15:20
parzialmente nuvoloso
parzialmente nuvoloso
 Vento da E
Vento: E 15 km/h
Temperatura: 18°C
P.to di Rugiada: 8°C
Umidità: 52%
Barometro: 1011 hPa
Nuvole: parzialmente nuvoloso
Visibilità: 10 km
Dettaglio nuvole: Poco nuvoloso 914 m
parzialmente nuvoloso 1829 m
2021/05/06 13:20 LIPX 061320Z 10008KT 060V140 9999 FEW030 SCT060 18/08 Q1011
LIPO - Brescia/Montichiari, Italy
Distanza dalla stazione: NO 38km
Dati ricevuti: Thu, 06-May-2021 15:20
Molto nuvoloso
Molto nuvoloso
 Vento da E
Vento: E 11 km/h
Temperatura: 18°C
P.to di Rugiada: 9°C
Umidità: 56%
Barometro: 1010 hPa
Nuvole: Molto nuvoloso
Visibilità: 10 km
Dettaglio nuvole: Molto nuvoloso 1219 m
2021/05/06 13:20 LIPO 061320Z AUTO 10006KT 080V140 9999 BKN040/// 18/09 Q1010
 
LIPL - Ghedi (it-Afb), Italy
Distanza dalla stazione: NO 42km
Dati ricevuti: Thu, 06-May-2021 14:55
parzialmente nuvoloso
parzialmente nuvoloso
 Vento da variabile
Vento: variabile 0 km/h
Temperatura: 17°C
P.to di Rugiada: 10°C
Umidità: 64%
Barometro: 1010 hPa
Nuvole: parzialmente nuvoloso
Visibilità: 10 km
Dettaglio nuvole: parzialmente nuvoloso 1219 m
parzialmente nuvoloso 1829 m
2021/05/06 12:55 LIPL 061255Z /////KT 9999 SCT040 SCT060 17/10 Q1010 RMK BKN VIS MIN 9999 WIND THR31 10008KT WIND THR13 /////KT BLU
LIMP - Parma, Italy
Distanza dalla stazione: SO 49km
Dati ricevuti: Thu, 06-May-2021 14:50
parzialmente nuvoloso
parzialmente nuvoloso
 Vento da OSO
Vento: OSO 24 km/h
Temperatura: 22°C
P.to di Rugiada: 7°C
Umidità: 38%
Barometro: 1010 hPa
Nuvole: parzialmente nuvoloso
Visibilità: 10 km
Dettaglio nuvole: parzialmente nuvoloso 1219 m
2021/05/06 12:50 LIMP 061250Z 25013KT 190V290 9999 SCT040 22/07 Q1010
 
LIMS - Piacenza (it-Afb, Italy
Distanza dalla stazione: OSO 81km
Dati ricevuti: Thu, 06-May-2021 14:55
Molto nuvoloso
Molto nuvoloso
 Vento da O
Vento: O 9 km/h
Temperatura: 22°C
P.to di Rugiada: 11°C
Umidità: 50%
Barometro: 1008 hPa
Nuvole: Molto nuvoloso
Visibilità: 10 km
Dettaglio nuvole: Poco nuvoloso 1524 m
Molto nuvoloso 1829 m
2021/05/06 12:55 LIMS 061255Z 28005KT 230V330 9999 FEW050 BKN060 22/11 Q1008
LIPF - Ferrara (aut), Italy
Distanza dalla stazione: ESE 84km
Dati ricevuti: Thu, 06-May-2021 14:55
Poco nuvoloso
Poco nuvoloso
 Vento da N
Vento: N 7 km/h
Temperatura: 20°C
P.to di Rugiada: 9°C
Umidità: 49%
Barometro: 1011 hPa
Nuvole: Poco nuvoloso
Visibilità: 10 km
Dettaglio nuvole: Poco nuvoloso 1219 m
2021/05/06 12:55 LIPF 061255Z 35004KT 9999 FEW040 20/09 Q1011
 
LIPE - Bologna/Borgo (a, Italy
Distanza dalla stazione: SE 88km
Dati ricevuti: Thu, 06-May-2021 15:20
Poco nuvoloso
Poco nuvoloso
 Vento da variabile
Vento: variabile 7 km/h
Temperatura: 23°C
P.to di Rugiada: 9°C
Umidità: 41%
Barometro: 1010 hPa
Nuvole: Poco nuvoloso
Visibilità: 10 km
Dettaglio nuvole: Poco nuvoloso 1829 m
2021/05/06 13:20 LIPE 061320Z VRB04KT 9999 FEW060 23/09 Q1010
LIPU - Padova (civ/It-A, Italy
Distanza dalla stazione: ENE 93km
Dati ricevuti: Thu, 06-May-2021 08:00
Non attivo
Sereno
Sereno
 Vento da NE
Vento: NE 19 km/h
Temperatura: 12°C
P.to di Rugiada: 5°C
Umidità: 63%
Barometro: 1012 hPa
Sommario: Sereno
Visibilità: superiore a 10 km
2021/05/06 06:00 LIPU 060600Z 04010KT 360V070 CAVOK 12/05 Q1012
 
LIME - Bergamo/Orio Ser, Italy
Distanza dalla stazione: NO 95km
Dati ricevuti: Thu, 06-May-2021 15:20
Molto nuvoloso
Molto nuvoloso
 Vento da SE
Vento: SE 13 km/h
Temperatura: 18°C
P.to di Rugiada: 8°C
Umidità: 52%
Barometro: 1010 hPa
Nuvole: Molto nuvoloso
Visibilità: 10 km
Dettaglio nuvole: parzialmente nuvoloso 1829 m
Molto nuvoloso 3048 m
2021/05/06 13:20 LIME 061320Z 14007KT 100V160 9999 SCT060 BKN100 18/08 Q1010 NOSIG
LIMT - Cisa Pass, Italy
Distanza dalla stazione: SO 103km
Dati ricevuti: Mon, 23-Sep-2019 13:55
Non attivo
Nebbia
Nebbia
 Vento da calm
Vento: Calma
Temperatura: 10°C
P.to di Rugiada: 10°C
Umidità: 100%
Barometro: 1014 hPa
Sommario: Nebbia
Visibilità: 0 km
2019/09/23 11:55 LIMT 231155Z 00000KT 0000 FG VV/// 10/10 Q1014 RMK MON INVIS VAL INVIS VIS MIN 0000
 
LIVC - Cimone Mountain, Italy
Distanza dalla stazione: S 108km
Dati ricevuti: Thu, 06-May-2021 14:55

 Vento da SSO
Vento: SSO 65 km/h, Raffica: 98 km/h
Temperatura: 4°C
Temperatura del vento: -3°C
P.to di Rugiada: -3°C
Umidità: 61%
Barometro: 1014 hPa
2021/05/06 12:55 LIVC 061255Z AUTO 21035G53KT 170V230 //// 04/M03 Q1014
LIVP - Paganella Mounta, Italy
Distanza dalla stazione: NNE 112km
Dati ricevuti: Thu, 06-May-2021 14:55
Nebbia
Nebbia
 Vento da SSO
Vento: SSO 33 km/h
Temperatura: 1°C
Temperatura del vento: -6°C
P.to di Rugiada: 0°C
Umidità: 93%
Barometro: 1011 hPa
Sommario: Nebbia
Visibilità: 0 km
2021/05/06 12:55 LIVP 061255Z 21018KT 0000 FG VV/// 01/00 Q1011 RMK MON INVIS VAL INVIS VIS MIN 0000
 
LIML - Milano/Linate, Italy
Distanza dalla stazione: ONO 115km
Dati ricevuti: Thu, 06-May-2021 15:20
parzialmente nuvoloso
parzialmente nuvoloso
 Vento da ESE
Vento: ESE 17 km/h
Temperatura: 19°C
P.to di Rugiada: 10°C
Umidità: 56%
Barometro: 1010 hPa
Nuvole: parzialmente nuvoloso
Visibilità: 10 km
Dettaglio nuvole: parzialmente nuvoloso 1219 m
2021/05/06 13:20 LIML 061320Z 11009KT 070V130 9999 SCT040 19/10 Q1010 NOSIG
LIPS - Istrana (it-Afb), Italy
Distanza dalla stazione: ENE 123km
Dati ricevuti: Thu, 06-May-2021 14:55
Molto nuvoloso
Molto nuvoloso
 Vento da E
Vento: E 17 km/h
Temperatura: 14°C
P.to di Rugiada: 10°C
Umidità: 77%
Barometro: 1013 hPa
Nuvole: Molto nuvoloso
Visibilità: 10 km
Dettaglio nuvole: Molto nuvoloso 762 m
Molto nuvoloso 2743 m
2021/05/06 12:55 LIPS 061255Z 08009KT 9999 BKN025 BKN090 14/10 Q1013 RMK BKN VIS MIN 9999 WIND THR26 03009KT WIND THR08 08011KT BLU
 
LIPH - Treviso(Civ/It-A, Italy
Distanza dalla stazione: ENE 127km
Dati ricevuti: Thu, 06-May-2021 15:20
Molto nuvoloso
Molto nuvoloso
 Vento da ENE
Vento: ENE 20 km/h
Temperatura: 14°C
P.to di Rugiada: 8°C
Umidità: 67%
Barometro: 1012 hPa
Nuvole: Molto nuvoloso
Visibilità: 10 km
Dettaglio nuvole: Molto nuvoloso 762 m
2021/05/06 13:20 LIPH 061320Z 06011KT 9999 BKN025 14/08 Q1012
LIPZ - Venezia/Tessera, Italy
Distanza dalla stazione: ENE 133km
Dati ricevuti: Thu, 06-May-2021 15:20
Poco nuvoloso
Poco nuvoloso
 Vento da ENE
Vento: ENE 22 km/h
Temperatura: 15°C
P.to di Rugiada: 8°C
Umidità: 63%
Barometro: 1012 hPa
Nuvole: Poco nuvoloso
Visibilità: 10 km
Dettaglio nuvole: Poco nuvoloso 610 m
2021/05/06 13:20 LIPZ 061320Z 06012KT 9999 FEW020 15/08 Q1012 NOSIG
 
LIQW - Sarzana/Luni, Italy
Distanza dalla stazione: SSO 135km
Dati ricevuti: Thu, 06-May-2021 14:55
parzialmente nuvoloso
parzialmente nuvoloso
 Vento da SSE
Vento: SSE 17 km/h
Temperatura: 18°C
P.to di Rugiada: 10°C
Umidità: 60%
Barometro: 1014 hPa
Nuvole: parzialmente nuvoloso
Visibilità: 10 km
Dettaglio nuvole: parzialmente nuvoloso 762 m
2021/05/06 12:55 LIQW 061255Z 15009KT 090V220 9999 SCT025 18/10 Q1014 RMK SCT VIS MIN 9999 WIND THR18 16009KT BLU
LIVR - Rolle Pass, Italy
Distanza dalla stazione: NE 150km
Dati ricevuti: Thu, 06-May-2021 14:55
Leggera pioggia, Neve, parzialmente nuvoloso
Leggera pioggia, Neve, parzialmente nuvoloso
 Vento da SSE
Vento: SSE 24 km/h, Raffica: 43 km/h
Temperatura: 3°C
Temperatura del vento: -2°C
P.to di Rugiada: 1°C
Umidità: 87%
Barometro: 1012 hPa
Sommario: Leggera pioggia, Neve
Nuvole: parzialmente nuvoloso
Visibilità: 10 km
Dettaglio nuvole: Molto nuvoloso 610 m
parzialmente nuvoloso 1219 m
2021/05/06 12:55 LIVR 061255Z 16013G23KT 9999 -RASN BKN020 SCT040 03/01 Q1012 RMK OVC MON CIME INC VIS MIN 9999
 
LIPC - Cervia (it-Afb), Italy
Dati ricevuti: Thu, 06-May-2021 14:55
Poco nuvoloso
Poco nuvoloso
 Vento da SO
Vento: SO 30 km/h
Temperatura: 22°C
P.to di Rugiada: 7°C
Umidità: 38%
Barometro: 1011 hPa
Nuvole: Poco nuvoloso
Visibilità: 10 km
Dettaglio nuvole: Poco nuvoloso 1219 m
2021/05/06 12:55 LIPC 061255Z 23016KT 9999 FEW040 22/07 Q1011
LIPR - Rimini (civ/It-A, Italy
Dati ricevuti: Thu, 06-May-2021 15:20
Poco nuvoloso
Poco nuvoloso
 Vento da SO
Vento: SO 22 km/h
Temperatura: 24°C
P.to di Rugiada: 7°C
Umidità: 34%
Barometro: 1011 hPa
Nuvole: Poco nuvoloso
Visibilità: 10 km
Dettaglio nuvole: Poco nuvoloso 1219 m
2021/05/06 13:20 LIPR 061320Z 22012KT 190V260 9999 FEW040 24/07 Q1011
 
LIPK - Forli (civ/It-Af, Italy
Distanza dalla stazione: SE 154km
Dati ricevuti: Thu, 06-May-2021 14:50
Sereno
Sereno
 Vento da SO
Vento: SO 17 km/h, Raffica: 39 km/h
Temperatura: 22°C
P.to di Rugiada: 5°C
Umidità: 33%
Barometro: 1011 hPa
Sommario: Sereno
Visibilità: superiore a 10 km
2021/05/06 12:50 LIPK 061250Z 23009G21KT CAVOK 22/05 Q1011
LIRX - Monte Calamita, Italy
Dati ricevuti: Thu, 06-May-2021 14:55
Sereno
Sereno
 Vento da S
Vento: S 11 km/h
Temperatura: 20°C
P.to di Rugiada: 10°C
Umidità: 53%
Barometro: 1014 hPa
Sommario: Sereno
Visibilità: superiore a 10 km
2021/05/06 12:55 LIRX 061255Z 18006KT CAVOK 20/10 Q1014 RMK SKC VIS MIN 9999 VIS MAR 10 KM
 
LIVM - Punta Marina/Rav, Italy
Dati ricevuti: Thu, 06-May-2021 14:55
Sereno
Sereno
 Vento da E
Vento: E 11 km/h
Temperatura: 19°C
P.to di Rugiada: 11°C
Umidità: 60%
Barometro: 1012 hPa
Sommario: Sereno
Visibilità: superiore a 10 km
2021/05/06 12:55 LIVM 061255Z 08006KT CAVOK 19/11 Q1012 RMK SCT SCT180 QUK 1 QUL 0 VIS MAR 12 KM VIS MIN 9999
LIMV - Passo dei Giovi, Italy
Distanza dalla stazione: OSO 152km
Dati ricevuti: Wed, 05-May-2021 08:55
Non attivo
Light drizzle, parzialmente nuvoloso
Light drizzle, parzialmente nuvoloso
 Vento da variabile
Vento: variabile 0 km/h
Temperatura: 11°C
P.to di Rugiada: 10°C
Umidità: 94%
Barometro: 1009 hPa
Sommario: Light Drizzle
Nuvole: parzialmente nuvoloso
Visibilità: 8 km
Dettaglio nuvole: Molto nuvoloso 213 m
parzialmente nuvoloso 396 m
2021/05/05 06:55 LIMV 050655Z /////KT 8000 -DZ BKN007 SCT013 11/10 Q1009 RMK OVC MON CIME INC NC VAL FOSCHIA VIS MIN 8000
 
LIPB - Bolzano(Civ/It-A, Italy
Distanza dalla stazione: NNE 152km
Dati ricevuti: Thu, 06-May-2021 14:50
parzialmente nuvoloso
parzialmente nuvoloso
 Vento da variabile
Vento: variabile 9 km/h
Temperatura: 22°C
P.to di Rugiada: 4°C
Umidità: 31%
Barometro: 1008 hPa
Nuvole: parzialmente nuvoloso
Visibilità: 10 km
Dettaglio nuvole: parzialmente nuvoloso 2134 m
parzialmente nuvoloso 3658 m
2021/05/06 12:50 LIPB 061250Z VRB05KT 9999 SCT070 SCT120 22/04 Q1008
LIVD - Bolzano-Dobbiaco, Italy
Dati ricevuti: Thu, 06-May-2021 14:55
Poco nuvoloso
Poco nuvoloso
 Vento da variabile
Vento: variabile 0 km/h
Temperatura: 9°C
P.to di Rugiada: 2°C
Umidità: 62%
Barometro: 1011 hPa
Nuvole: Poco nuvoloso
Visibilità: 10 km
Dettaglio nuvole: Poco nuvoloso 914 m
2021/05/06 12:55 LIVD 061255Z /////KT 9999 FEW030 09/02 Q1011 RMK OVC OVC060 VIS MIN 9999
 
LIVE - Bolzano-Passo Resia, Italy
Distanza dalla stazione: NO 160km
Dati ricevuti: Thu, 06-May-2021 14:55
parzialmente nuvoloso
parzialmente nuvoloso
 Vento da SSO
Vento: SSO 13 km/h
Temperatura: 9°C
Temperatura del vento: 7°C
P.to di Rugiada: -2°C
Umidità: 46%
Barometro: 1008 hPa
Nuvole: parzialmente nuvoloso
Visibilità: 10 km
Dettaglio nuvole: parzialmente nuvoloso 762 m
2021/05/06 12:55 LIVE 061255Z 21007KT 9999 SCT025 09/M02 Q1008 RMK BKN BKN080 VIS MIN 9999
LIMH - Aosta-Pian Rosa (mtn T, Italy
Dati ricevuti: Thu, 06-May-2021 14:55
Neve leggera, Nebbia gelata, Nebbia
Neve leggera, Nebbia gelata, Nebbia
 Vento da SO
Vento: SO 41 km/h, Raffica: 63 km/h
Temperatura: -7°C
Temperatura del vento: -17°C
P.to di Rugiada: -7°C
Umidità: 100%
Barometro: 1011 hPa
Sommario: Neve leggera, Nebbia gelata, Nebbia
Visibilità: 0 km
2021/05/06 12:55 LIMH 061255Z 22022G34KT 0300 -SN FZFG VV/// M07/M07 Q1011 RMK MON INVIS VAL INVIS VIS MIN 0300
 
LIMZ - Cuneo/Levaldigi, Italy
Dati ricevuti: Thu, 06-May-2021 15:20
Sereno
Sereno
 Vento da variabile
Vento: variabile 9 km/h
Temperatura: 21°C
P.to di Rugiada: 12°C
Umidità: 57%
Barometro: 1009 hPa
Nuvole: Sereno
Visibilità: 10 km
2021/05/06 13:20 LIMZ 061320Z AUTO VRB05KT 9999 NCD 21/12 Q1009
LIMK - Torino-Bric Della Croce, Italy
Dati ricevuti: Sun, 02-May-2021 08:55
Non attivo
Sereno
Sereno
 Vento da O
Vento: O 17 km/h
Temperatura: 8°C
Temperatura del vento: 5°C
P.to di Rugiada: 8°C
Umidità: 100%
Barometro: 1008 hPa
Sommario: Sereno
Visibilità: superiore a 10 km
2021/05/02 06:55 LIMK 020655Z 27009KT CAVOK 08/08 Q1008 RMK SKC VAL CLD SCT VIS MIN 9999
 
LIMN - Novara-Cameri (it-Afb), Italy
Dati ricevuti: Thu, 06-May-2021 14:55
parzialmente nuvoloso
parzialmente nuvoloso
 Vento da ESE
Vento: ESE 13 km/h
Temperatura: 20°C
P.to di Rugiada: 10°C
Umidità: 53%
Barometro: 1010 hPa
Nuvole: parzialmente nuvoloso
Visibilità: 10 km
Dettaglio nuvole: parzialmente nuvoloso 914 m
2021/05/06 12:55 LIMN 061255Z 12007KT 9999 SCT030 20/10 Q1010 RMK BKN SCT200 VIS MIN 9999 BLU
LIPA - Pordenone-Aviano (it/Us-Af, Italy
Dati ricevuti: Thu, 06-May-2021 14:55
Molto nuvoloso
Molto nuvoloso
 Vento da NE
Vento: NE 9 km/h
Temperatura: 12°C
P.to di Rugiada: 8°C
Umidità: 77%
Barometro: 1013 hPa
Nuvole: Molto nuvoloso
Visibilità: 10 km
Dettaglio nuvole: parzialmente nuvoloso 1219 m
Molto nuvoloso 1524 m
2021/05/06 12:55 LIPA 061255Z 05005KT 9999 SCT040 BKN050 12/08 Q1013 RMK OVC VIS MIN 9999 WIND THR05 /////KT WIND THR23 /////KT A2993 BLU
 
LIPI - Udine-Rivolto (it-Afb), Italy
Dati ricevuti: Thu, 06-May-2021 14:55
Molto nuvoloso
Molto nuvoloso
 Vento da NNE
Vento: NNE 19 km/h
Temperatura: 12°C
P.to di Rugiada: 6°C
Umidità: 67%
Barometro: 1013 hPa
Nuvole: Molto nuvoloso
Visibilità: 10 km
Dettaglio nuvole: parzialmente nuvoloso 762 m
Molto nuvoloso 914 m
2021/05/06 12:55 LIPI 061255Z 03010KT 9999 SCT025 BKN030 12/06 Q1013 RMK OVC VIS MIN 9999 WIND THR06 07010KT WIND THR24 06010KT BLU
LIVO - Udine-Tarvisio, Italy
Dati ricevuti: Thu, 06-May-2021 14:55
Molto nuvoloso
Molto nuvoloso
 Vento da ENE
Vento: ENE 7 km/h
Temperatura: 6°C
Temperatura del vento: 4°C
P.to di Rugiada: 2°C
Umidità: 76%
Barometro: 1013 hPa
Nuvole: Molto nuvoloso
Visibilità: 10 km
Dettaglio nuvole: Molto nuvoloso 457 m
2021/05/06 12:55 LIVO 061255Z 06004KT 9999 BKN015 06/02 Q1013 RMK BKN VIS MIN 9999
 
LIPQ - Trieste-Ronchi Dei Legionari, Italy
Dati ricevuti: Thu, 06-May-2021 15:20
parzialmente nuvoloso
parzialmente nuvoloso
 Vento da NE
Vento: NE 19 km/h
Temperatura: 14°C
P.to di Rugiada: 7°C
Umidità: 63%
Barometro: 1012 hPa
Nuvole: parzialmente nuvoloso
Visibilità: 10 km
Dettaglio nuvole: Poco nuvoloso 2164 m
parzialmente nuvoloso 2713 m
2021/05/06 13:20 LIPQ 061320Z AUTO 05010KT 9999 FEW071/// SCT089/// 14/07 Q1012
LIVT - Trieste, Italy
Dati ricevuti: Thu, 06-May-2021 14:55
Molto nuvoloso
Molto nuvoloso
 Vento da NE
Vento: NE 9 km/h
Temperatura: 17°C
P.to di Rugiada: 8°C
Umidità: 56%
Barometro: 1012 hPa
Nuvole: Molto nuvoloso
Visibilità: 10 km
Dettaglio nuvole: Molto nuvoloso 1219 m
2021/05/06 12:55 LIVT 061255Z 04005KT 9999 BKN040 17/08 Q1012 RMK BKN QUK 2 QUL 1 NE VIS MAR 20 KM VIS MIN 9999
 
LIRQ - Firenze/Peretola, Italy
Dati ricevuti: Thu, 06-May-2021 15:20
Poco nuvoloso
Poco nuvoloso
 Vento da OSO
Vento: OSO 24 km/h
Temperatura: 21°C
P.to di Rugiada: 6°C
Umidità: 38%
Barometro: 1014 hPa
Nuvole: Poco nuvoloso
Visibilità: 10 km
Dettaglio nuvole: Poco nuvoloso 1829 m
2021/05/06 13:20 LIRQ 061320Z 25013KT 210V280 9999 FEW060 21/06 Q1014
LIRP - Pisa (civ/It-Afb, Italy
Dati ricevuti: Thu, 06-May-2021 15:15
Poco nuvoloso
Poco nuvoloso
 Vento da OSO
Vento: OSO 28 km/h
Temperatura: 17°C
P.to di Rugiada: 10°C
Umidità: 64%
Barometro: 1015 hPa
Nuvole: Poco nuvoloso
Visibilità: 10 km
Dettaglio nuvole: Poco nuvoloso 762 m
2021/05/06 13:15 LIRP 061315Z 25015KT 9999 FEW025 17/10 Q1015 TEMPO 24015G25KT
 
LIRA - Roma-Ciampino(It-Afb/, Italy
Dati ricevuti: Thu, 06-May-2021 15:20
Sereno
Sereno
 Vento da SSO
Vento: SSO 22 km/h
Temperatura: 20°C
P.to di Rugiada: 13°C
Umidità: 64%
Barometro: 1016 hPa
Sommario: Sereno
Visibilità: superiore a 10 km
2021/05/06 13:20 LIRA 061320Z 21012KT 190V250 CAVOK 20/13 Q1016
LIRU - Rome/Urbe (it-Af, Italy
Dati ricevuti: Thu, 06-May-2021 14:50
Sereno
Sereno
 Vento da SSO
Vento: SSO 19 km/h
Temperatura: 21°C
P.to di Rugiada: 14°C
Umidità: 64%
Barometro: 1016 hPa
Sommario: Sereno
Visibilità: superiore a 10 km
2021/05/06 12:50 LIRU 061250Z 21010KT 180V250 CAVOK 21/14 Q1016
 
LIRG - Roma-Guidonia (it-Afb, Italy
Dati ricevuti: Thu, 06-May-2021 14:55
Sereno
Sereno
 Vento da SO
Vento: SO 20 km/h
Temperatura: 22°C
P.to di Rugiada: 11°C
Umidità: 50%
Barometro: 1016 hPa
Sommario: Sereno
Visibilità: superiore a 10 km
2021/05/06 12:55 LIRG 061255Z 23011KT CAVOK 22/11 Q1016
LIRE - Roma-Pratica Di Mare(, Italy
Dati ricevuti: Thu, 06-May-2021 14:55
Poco nuvoloso
Poco nuvoloso
 Vento da S
Vento: S 20 km/h
Temperatura: 19°C
P.to di Rugiada: 14°C
Umidità: 73%
Barometro: 1017 hPa
Nuvole: Poco nuvoloso
Visibilità: 10 km
Dettaglio nuvole: Poco nuvoloso 610 m
2021/05/06 12:55 LIRE 061255Z 19011KT 9999 FEW020 19/14 Q1017 RMK FEW VIS MIN 9999 WIND THR13 19010KT WIND THR31 /////KT BLU
 
LIRF - Roma-Fiumicino, Italy
Dati ricevuti: Thu, 06-May-2021 15:20
Poco nuvoloso
Poco nuvoloso
 Vento da SSO
Vento: SSO 19 km/h
Temperatura: 20°C
P.to di Rugiada: 13°C
Umidità: 64%
Barometro: 1016 hPa
Nuvole: Poco nuvoloso
Visibilità: 10 km
Dettaglio nuvole: Poco nuvoloso 610 m
2021/05/06 13:20 LIRF 061320Z 20010KT 160V230 9999 FEW020 20/13 Q1016 NOSIG
LIRL - Latina (it-Afb), Italy
Dati ricevuti: Thu, 06-May-2021 14:55
Poco nuvoloso
Poco nuvoloso
 Vento da SSO
Vento: SSO 17 km/h
Temperatura: 22°C
P.to di Rugiada: 15°C
Umidità: 65%
Barometro: 1016 hPa
Nuvole: Poco nuvoloso
Visibilità: 10 km
Dettaglio nuvole: Poco nuvoloso 610 m
2021/05/06 12:55 LIRL 061255Z 21009KT 9999 FEW020 22/15 Q1016
 
LIRH - Frosinone (it-Af, Italy
Dati ricevuti: Thu, 06-May-2021 14:55
parzialmente nuvoloso
parzialmente nuvoloso
 Vento da S
Vento: S 9 km/h
Temperatura: 21°C
P.to di Rugiada: 12°C
Umidità: 57%
Barometro: 1016 hPa
Nuvole: parzialmente nuvoloso
Visibilità: 10 km
Dettaglio nuvole: parzialmente nuvoloso 1067 m
2021/05/06 12:55 LIRH 061255Z 18005KT 9999 SCT035 21/12 Q1016
LIQN - Rieti, Italy
Dati ricevuti: Thu, 06-May-2021 14:50
Sereno
Sereno
 Vento da S
Vento: S 19 km/h
Temperatura: 21°C
P.to di Rugiada: 8°C
Umidità: 43%
Barometro: 1014 hPa
Sommario: Sereno
Visibilità: superiore a 10 km
2021/05/06 12:50 LIQN 061250Z 19010KT CAVOK 21/08 Q1014
 
LIRK - Rieti-Monte Terminillo, Italy
Dati ricevuti: Thu, 06-May-2021 14:55

 Vento da O
Vento: O 17 km/h
Temperatura: 8°C
Temperatura del vento: 5°C
P.to di Rugiada: 3°C
Umidità: 71%
Barometro: 1019 hPa
2021/05/06 12:55 LIRK 061255Z AUTO 28009KT //// 08/03 Q1019
LIRV - Viterbo (it-Mil), Italy
Dati ricevuti: Thu, 06-May-2021 14:55
Poco nuvoloso
Poco nuvoloso
 Vento da SSO
Vento: SSO 20 km/h
Temperatura: 21°C
P.to di Rugiada: 9°C
Umidità: 46%
Barometro: 1015 hPa
Nuvole: Poco nuvoloso
Visibilità: 10 km
Dettaglio nuvole: Poco nuvoloso 792 m
2021/05/06 12:55 LIRV 061255Z 21011KT 9999 FEW026 21/09 Q1015
 
LIQO - Grosseto-Monte Argentario, Italy
Dati ricevuti: Thu, 06-May-2021 13:55
Non attivo
Sereno
Sereno
 Vento da SSE
Vento: SSE 6 km/h
Temperatura: 18°C
P.to di Rugiada: 10°C
Umidità: 60%
Barometro: 1015 hPa
Sommario: Sereno
Visibilità: superiore a 10 km
2021/05/06 11:55 LIQO 061155Z 16003KT CAVOK 18/10 Q1015 RMK FEW FEW190 VAL NE CLD VIS MIN 9999
LIRZ - Perugia, Italy
Dati ricevuti: Thu, 06-May-2021 15:20
Molto nuvoloso
Molto nuvoloso
 Vento da SO
Vento: SO 20 km/h
Temperatura: 21°C
P.to di Rugiada: 10°C
Umidità: 50%
Barometro: 1013 hPa
Nuvole: Molto nuvoloso
Visibilità: 10 km
Dettaglio nuvole: Molto nuvoloso 1890 m
2021/05/06 13:20 LIRZ 061320Z AUTO 22011KT 190V250 9999 BKN062/// 21/10 Q1013
 
LIBP - Pescara, Italy
Dati ricevuti: Thu, 06-May-2021 15:20
Sereno
Sereno
 Vento da E
Vento: E 19 km/h
Temperatura: 22°C
P.to di Rugiada: 9°C
Umidità: 44%
Barometro: 1013 hPa
Nuvole: Sereno
Visibilità: 10 km
2021/05/06 13:20 LIBP 061320Z AUTO 09010KT 9999 NCD 22/09 Q1013
LIRM - Caserta-Grazzanise (it-A, Italy
Dati ricevuti: Thu, 06-May-2021 14:55
Molto nuvoloso
Molto nuvoloso
 Vento da variabile
Vento: variabile 0 km/h
Temperatura: 20°C
P.to di Rugiada: 10°C
Umidità: 53%
Barometro: 1016 hPa
Nuvole: Molto nuvoloso
Visibilità: 10 km
Dettaglio nuvole: Molto nuvoloso 610 m
2021/05/06 12:55 LIRM 061255Z /////KT 9999 BKN020 20/10 Q1016
 
LIRS - Grosseto (it-Afb, Italy
Dati ricevuti: Thu, 06-May-2021 14:55
Poco nuvoloso
Poco nuvoloso
 Vento da SSO
Vento: SSO 17 km/h
Temperatura: 21°C
P.to di Rugiada: 11°C
Umidità: 53%
Barometro: 1014 hPa
Nuvole: Poco nuvoloso
Visibilità: 10 km
Dettaglio nuvole: Poco nuvoloso 762 m
2021/05/06 12:55 LIRS 061255Z 21009KT 9999 FEW025 21/11 Q1014
LIRN - Napoli-Capodichino, Italy
Dati ricevuti: Thu, 06-May-2021 15:20
Poco nuvoloso
Poco nuvoloso
 Vento da SSO
Vento: SSO 15 km/h
Temperatura: 19°C
P.to di Rugiada: 12°C
Umidità: 64%
Barometro: 1017 hPa
Nuvole: Poco nuvoloso
Visibilità: 10 km
Dettaglio nuvole: Poco nuvoloso 1219 m
2021/05/06 13:20 LIRN 061320Z 21008KT 170V240 9999 FEW040 19/12 Q1017 NOSIG
 
LIVF - Pesaro Urbino-Frontone, Italy
Dati ricevuti: Sat, 01-May-2021 20:55
Non attivo
Leggera pioggia, Foschia, parzialmente nuvoloso
Leggera pioggia, Foschia, parzialmente nuvoloso
 Vento da SSO
Vento: SSO 26 km/h
Temperatura: 14°C
P.to di Rugiada: 12°C
Umidità: 88%
Barometro: 1005 hPa
Sommario: Leggera pioggia, Foschia
Nuvole: parzialmente nuvoloso
Visibilità: 5 km
Dettaglio nuvole: parzialmente nuvoloso 305 m
parzialmente nuvoloso 610 m
2021/05/01 18:55 LIVF 011855Z 21014KT 5000 -RA BR SCT010 SCT020 14/12 Q1005 RERA RMK OVC MON INVIS VAL INVIS VIS MIN 5000
LIQC - Capri, Italy
Dati ricevuti: Thu, 06-May-2021 14:55
parzialmente nuvoloso
parzialmente nuvoloso
 Vento da SO
Vento: SO 9 km/h
Temperatura: 19°C
P.to di Rugiada: 14°C
Umidità: 73%
Barometro: 1018 hPa
Nuvole: parzialmente nuvoloso
Visibilità: 10 km
Dettaglio nuvole: parzialmente nuvoloso 914 m
2021/05/06 12:55 LIQC 061255Z 22005KT 9999 SCT030 19/14 Q1018 RMK SCT QUK 2 QUL 1 SW VIS MAR 15 KM VIS MIN 9999
 
LIPY - Ancona-Falconara (it-Af, Italy
Dati ricevuti: Thu, 06-May-2021 15:20
Sereno
Sereno
 Vento da OSO
Vento: OSO 30 km/h
Temperatura: 25°C
P.to di Rugiada: 5°C
Umidità: 28%
Barometro: 1012 hPa
Nuvole: Sereno
Visibilità: 10 km
2021/05/06 13:20 LIPY 061320Z AUTO 24016KT 9999 NCD 25/05 Q1012
LIRX - Monte Calamita, Italy
Dati ricevuti: Thu, 06-May-2021 14:55
Sereno
Sereno
 Vento da S
Vento: S 11 km/h
Temperatura: 20°C
P.to di Rugiada: 10°C
Umidità: 53%
Barometro: 1014 hPa
Sommario: Sereno
Visibilità: superiore a 10 km
2021/05/06 12:55 LIRX 061255Z 18006KT CAVOK 20/10 Q1014 RMK SKC VIS MIN 9999 VIS MAR 10 KM
 
LIEB - Cape Bellavista, Italy
Dati ricevuti: Thu, 06-May-2021 14:55
Sereno
Sereno
 Vento da S
Vento: S 6 km/h
Temperatura: 24°C
P.to di Rugiada: 12°C
Umidità: 47%
Barometro: 1016 hPa
Sommario: Sereno
Visibilità: superiore a 10 km
2021/05/06 12:55 LIEB 061255Z 17003KT CAVOK 24/12 Q1016 RMK BKN BKN080 QUK 2 QUL 0 VIS MAR 30 KM MON LIB VIS MIN 9999
LIEC - Cape Carbonara, Italy
Dati ricevuti: Thu, 06-May-2021 14:55
Sereno
Sereno
 Vento da SSO
Vento: SSO 7 km/h
Temperatura: 21°C
P.to di Rugiada: 11°C
Umidità: 53%
Barometro: 1015 hPa
Sommario: Sereno
Visibilità: superiore a 10 km
2021/05/06 12:55 LIEC 061255Z 20004KT CAVOK 21/11 Q1015 RMK BKN SCT070 SCT100 BKN200 QUK 0 QUL 0 VIS MAR 20 KM VIS MIN 9999
 
LIED - Cagliari-Decimomannu(It-A, Italy
Dati ricevuti: Thu, 06-May-2021 14:55
Poco nuvoloso
Poco nuvoloso
 Vento da NO
Vento: NO 13 km/h
Temperatura: 24°C
P.to di Rugiada: 8°C
Umidità: 36%
Barometro: 1015 hPa
Nuvole: Poco nuvoloso
Visibilità: 10 km
Dettaglio nuvole: Poco nuvoloso 610 m
2021/05/06 12:55 LIED 061255Z 32007KT 9999 FEW020 24/08 Q1015 RMK BKN SCT070 VIS MIN 9999 WIND THR35 33006KT WIND THR17 36007KT BLU
LIEE - Cagliari-Elmas(A, Italy
Dati ricevuti: Thu, 06-May-2021 15:20
Sereno
Sereno
 Vento da SO
Vento: SO 19 km/h
Temperatura: 23°C
P.to di Rugiada: 12°C
Umidità: 50%
Barometro: 1016 hPa
Sommario: Sereno
Visibilità: superiore a 10 km
2021/05/06 13:20 LIEE 061320Z 22010KT CAVOK 23/12 Q1016
 
LIEO - Olbia-Costa Smeralda, Italy
Dati ricevuti: Thu, 06-May-2021 15:20
Sereno
Sereno
 Vento da SO
Vento: SO 17 km/h
Temperatura: 25°C
P.to di Rugiada: 9°C
Umidità: 36%
Barometro: 1015 hPa
Sommario: Sereno
Visibilità: superiore a 10 km
2021/05/06 13:20 LIEO 061320Z 22009KT 180V250 CAVOK 25/09 Q1015
LIEA - Alghero, Italy
Dati ricevuti: Thu, 06-May-2021 15:20
Sereno
Sereno
 Vento da ONO
Vento: ONO 15 km/h
Temperatura: 21°C
P.to di Rugiada: 10°C
Umidità: 50%
Barometro: 1017 hPa
Sommario: Sereno
Visibilità: superiore a 10 km
2021/05/06 13:20 LIEA 061320Z 30008KT 260V330 CAVOK 21/10 Q1017
 
LICA - Catanzaro-Lamezia Terme, Italy
Dati ricevuti: Thu, 06-May-2021 15:20
Sereno
Sereno
 Vento da OSO
Vento: OSO 22 km/h
Temperatura: 19°C
P.to di Rugiada: 15°C
Umidità: 78%
Barometro: 1017 hPa
Nuvole: Sereno
Visibilità: 10 km
2021/05/06 13:20 LICA 061320Z AUTO 25012KT 9999 NCD 19/15 Q1017
LIBQ - Cosenza-Monte Scuro, Italy
Dati ricevuti: Wed, 05-May-2021 22:55
Non attivo
Nebbia
Nebbia
 Vento da variabile
Vento: variabile 0 km/h
Temperatura: 7°C
P.to di Rugiada: 6°C
Umidità: 93%
Barometro: 1018 hPa
Sommario: Nebbia
Visibilità: 0 km
2021/05/05 20:55 LIBQ 052055Z /////KT 0000 FG VV/// 07/06 Q1018 RMK MON INVIS VAL INVIS VIS MIN 0000
 
LICR - Reggio Calabria, Italy
Dati ricevuti: Thu, 06-May-2021 15:20
Poco nuvoloso
Poco nuvoloso
 Vento da N
Vento: N 28 km/h, Raffica: 54 km/h
Temperatura: 21°C
P.to di Rugiada: 13°C
Umidità: 60%
Barometro: 1017 hPa
Nuvole: Poco nuvoloso
Visibilità: 10 km
Dettaglio nuvole: Poco nuvoloso 6706 m
2021/05/06 13:20 LICR 061320Z AUTO 35015G29KT 330V030 9999 FEW220/// 21/13 Q1017
LIBV - Bari-Gioia Del Colle, Italy
Dati ricevuti: Thu, 06-May-2021 14:55
Sereno
Sereno
 Vento da S
Vento: S 26 km/h
Temperatura: 22°C
P.to di Rugiada: 6°C
Umidità: 36%
Barometro: 1015 hPa
Sommario: Sereno
Visibilità: superiore a 10 km
2021/05/06 12:55 LIBV 061255Z 17014KT CAVOK 22/06 Q1015 RMK SCT SCT230 VIS MIN 9999 WIND THR32 17013KT WIND THR14 17015KT BLU
 
LIBD - Bari-Palese Macchie, Italy
Dati ricevuti: Thu, 06-May-2021 15:20
Sereno
Sereno
 Vento da E
Vento: E 19 km/h
Temperatura: 23°C
P.to di Rugiada: 7°C
Umidità: 36%
Barometro: 1014 hPa
Sommario: Sereno
Visibilità: superiore a 10 km
2021/05/06 13:20 LIBD 061320Z 08010KT CAVOK 23/07 Q1014
LIBR - Brindisi-Casale, Italy
Dati ricevuti: Mon, 19-Apr-2021 23:50
Non attivo
Sereno
Sereno
 Vento da O
Vento: O 17 km/h
Temperatura: 9°C
Temperatura del vento: 7°C
P.to di Rugiada: 6°C
Umidità: 82%
Barometro: 1014 hPa
Sommario: Sereno
Visibilità: superiore a 10 km
2021/04/19 21:50 LIBR 192150Z 26009KT CAVOK 09/06 Q1014
 
LIRT - Trevico, Italy
Dati ricevuti: Thu, 06-May-2021 01:55
Non attivo

 
2021/05/05 23:55 LIRT 052355Z ///14KT 9999 BKN016 06/01 Q1014 RMK BKN MON INVIS VAL INVIS VIS MIN 9999
LICB - Comiso, Italy
Dati ricevuti: Thu, 06-May-2021 14:50
Sereno
Sereno
 Vento da SO
Vento: SO 13 km/h
Temperatura: 22°C
P.to di Rugiada: 14°C
Umidità: 61%
Barometro: 1017 hPa
Nuvole: Sereno
Visibilità: 10 km
2021/05/06 12:50 LICB 061250Z AUTO 23007KT 200V260 9999 NCD 22/14 Q1017
 
LICL - Gela, Italy
Dati ricevuti: Thu, 06-May-2021 14:55
parzialmente nuvoloso
parzialmente nuvoloso
 Vento da SO
Vento: SO 9 km/h
Temperatura: 20°C
P.to di Rugiada: 17°C
Umidità: 83%
Barometro: 1016 hPa
Nuvole: parzialmente nuvoloso
Visibilità: 8 km
Dettaglio nuvole: Poco nuvoloso 457 m
parzialmente nuvoloso 671 m
2021/05/06 12:55 LICL 061255Z 22005KT 160V300 8000 FEW015 SCT022 20/17 Q1016 RMK OVC BKN060 QUK 1 QUL 0 VIS MAR 8 KM VIS MIN 8000
LIBN - Lecce (it-Afb), Italy
Dati ricevuti: Thu, 06-May-2021 14:55
Sereno
Sereno
 Vento da SSO
Vento: SSO 15 km/h
Temperatura: 23°C
P.to di Rugiada: 12°C
Umidità: 50%
Barometro: 1015 hPa
Sommario: Sereno
Visibilità: superiore a 10 km
2021/05/06 12:55 LIBN 061255Z 21008KT CAVOK 23/12 Q1015 RMK SCT SCT200 VIS MIN 9999 WIND THR14 22009KT WIND THR32 24010KT BLU
 
LICJ - Palermo-Punta Raisi, Italy
Dati ricevuti: Thu, 06-May-2021 15:20
parzialmente nuvoloso
parzialmente nuvoloso
 Vento da variabile
Vento: variabile 11 km/h
Temperatura: 23°C
P.to di Rugiada: 12°C
Umidità: 50%
Barometro: 1016 hPa
Nuvole: parzialmente nuvoloso
Visibilità: 10 km
Dettaglio nuvole: parzialmente nuvoloso 2134 m
2021/05/06 13:20 LICJ 061320Z VRB06KT 9999 SCT070 23/12 Q1016
LICZ - Catania-Sigonella (nas), Italy
Dati ricevuti: Thu, 06-May-2021 14:55
Poco nuvoloso
Poco nuvoloso
 Vento da E
Vento: E 7 km/h
Temperatura: 20°C
P.to di Rugiada: 10°C
Umidità: 53%
Barometro: 1017 hPa
Nuvole: Poco nuvoloso
Visibilità: 8 km
Dettaglio nuvole: Poco nuvoloso 3962 m
2021/05/06 12:55 LICZ 061255Z 09004KT 8000 FEW130 20/10 Q1017 RMK BKN BKN180 VIS MIN 8000 WIND THR28 07007KT WIND THR10 08005KT A3005 BLU
 
LICC - Catania-Fontanarossa, Italy
Dati ricevuti: Thu, 06-May-2021 15:20
Sereno
Sereno
 Vento da ENE
Vento: ENE 15 km/h
Temperatura: 21°C
P.to di Rugiada: 13°C
Umidità: 60%
Barometro: 1017 hPa
Sommario: Sereno
Visibilità: superiore a 10 km
2021/05/06 13:20 LICC 061320Z 06008KT CAVOK 21/13 Q1017
LICT - Trapani-Birgi (a, Italy
Dati ricevuti: Thu, 06-May-2021 14:55
Sereno
Sereno
 Vento da NO
Vento: NO 9 km/h
Temperatura: 19°C
P.to di Rugiada: 17°C
Umidità: 88%
Barometro: 1017 hPa
Sommario: Sereno
Visibilità: superiore a 10 km
2021/05/06 12:55 LICT 061255Z 32005KT CAVOK 19/17 Q1017
 
LICD - Agrigento-Lampedusa, Italy
Dati ricevuti: Thu, 06-May-2021 15:20
Sereno
Sereno
 Vento da NNE
Vento: NNE 15 km/h
Temperatura: 19°C
P.to di Rugiada: 19°C
Umidità: 100%
Barometro: 1016 hPa
Nuvole: Sereno
Visibilità: 10 km
2021/05/06 13:20 LICD 061320Z AUTO 03008KT 9999 NCD 19/19 Q1016
LICG - Pantelleria(It-A, Italy
Dati ricevuti: Thu, 06-May-2021 14:50
Sereno
Sereno
 Vento da NNE
Vento: NNE 11 km/h
Temperatura: 17°C
P.to di Rugiada: 14°C
Umidità: 83%
Barometro: 1018 hPa
Sommario: Sereno
Visibilità: superiore a 10 km
2021/05/06 12:50 LICG 061250Z 02006KT 340V050 CAVOK 17/14 Q1018


METEO PILLOLE
Maggior quantità di pioggia caduta in 12 mesi
Cherrapunji (1313 m) - India
tra il 1 agosto 1860 e il 31 luglio 1861 sono caduti 26466.8 mm .
Share

Non seguire questo link o sarai bannato dal sito!